createdAt,value
2018-08-17T00:00:58.637Z,6.90
2018-08-17T00:03:27.995Z,8.00
2018-08-17T00:05:57.438Z,7.17
2018-08-17T00:08:26.810Z,8.20
2018-08-17T00:10:56.171Z,7.10
2018-08-17T00:13:25.577Z,9.17
2018-08-17T00:15:55.001Z,7.07
2018-08-17T00:18:24.378Z,6.70
2018-08-17T00:20:53.761Z,7.63
2018-08-17T00:23:23.126Z,6.97
2018-08-17T00:25:52.545Z,4.43
2018-08-17T00:28:21.979Z,5.30
2018-08-17T00:30:51.310Z,7.03
2018-08-17T00:33:20.703Z,6.00
2018-08-17T00:35:50.075Z,6.17
2018-08-17T00:38:19.522Z,5.20
2018-08-17T00:40:48.924Z,5.23
2018-08-17T00:43:18.294Z,4.93
2018-08-17T00:45:47.722Z,5.07
2018-08-17T00:48:17.131Z,5.50
2018-08-17T00:50:46.534Z,5.33
2018-08-17T00:53:15.927Z,5.50
2018-08-17T00:55:45.336Z,5.63
2018-08-17T00:58:14.741Z,5.37
2018-08-17T01:00:44.137Z,5.17
2018-08-17T01:03:13.497Z,6.30
2018-08-17T01:05:42.898Z,6.33
2018-08-17T01:08:12.292Z,5.73
2018-08-17T01:10:41.692Z,6.70
2018-08-17T01:13:15.234Z,5.30
2018-08-17T01:15:44.605Z,5.70
2018-08-17T01:18:14.077Z,6.00
2018-08-17T01:20:43.463Z,5.63
2018-08-17T01:23:12.794Z,5.90
2018-08-17T01:25:42.202Z,5.80
2018-08-17T01:28:11.570Z,8.57
2018-08-17T01:30:40.931Z,6.83
2018-08-17T01:33:10.366Z,5.57
2018-08-17T01:35:39.765Z,6.90
2018-08-17T01:38:09.185Z,6.40
2018-08-17T01:40:38.546Z,5.77
2018-08-17T01:43:08.245Z,6.17
2018-08-17T01:45:37.613Z,6.20
2018-08-17T01:48:07.220Z,6.40
2018-08-17T01:50:36.611Z,7.13
2018-08-17T01:53:06.026Z,6.37
2018-08-17T01:55:35.408Z,7.83
2018-08-17T01:58:04.797Z,9.00
2018-08-17T02:00:34.205Z,8.60
2018-08-17T02:03:03.716Z,6.90
2018-08-17T02:05:33.101Z,9.33
2018-08-17T02:08:02.506Z,10.53
2018-08-17T02:10:31.913Z,7.10
2018-08-17T02:13:01.317Z,7.63
2018-08-17T02:15:30.734Z,8.17
2018-08-17T02:18:00.135Z,7.50
2018-08-17T02:20:29.524Z,6.30
2018-08-17T02:22:58.996Z,5.87
2018-08-17T02:25:28.381Z,8.50
2018-08-17T02:27:57.784Z,7.67
2018-08-17T02:30:27.166Z,10.13
2018-08-17T02:32:56.545Z,7.90
2018-08-17T02:35:25.911Z,9.30
2018-08-17T02:37:55.306Z,6.30
2018-08-17T02:40:24.720Z,7.67
2018-08-17T02:42:54.098Z,8.88
2018-08-17T02:45:23.542Z,10.03
2018-08-17T02:47:52.910Z,9.27
2018-08-17T02:50:22.322Z,8.67
2018-08-17T02:52:51.691Z,8.90
2018-08-17T02:55:21.066Z,8.90
2018-08-17T02:57:50.462Z,8.57
2018-08-17T03:00:19.830Z,9.00
2018-08-17T03:02:49.246Z,7.50
2018-08-17T03:05:18.626Z,8.10
2018-08-17T03:07:48.009Z,8.03
2018-08-17T03:10:17.361Z,7.10
2018-08-17T03:12:46.769Z,9.63
2018-08-17T03:15:16.219Z,7.17
2018-08-17T03:17:45.579Z,7.83
2018-08-17T03:20:14.963Z,7.50
2018-08-17T03:22:44.402Z,7.70
2018-08-17T03:25:13.758Z,7.43
2018-08-17T03:27:43.137Z,8.00
2018-08-17T03:30:12.515Z,9.30
2018-08-17T03:32:41.866Z,9.60
2018-08-17T03:35:11.253Z,8.00
2018-08-17T03:37:40.617Z,8.63
2018-08-17T03:40:09.994Z,7.50
2018-08-17T03:42:39.361Z,7.53
2018-08-17T03:45:08.765Z,8.23
2018-08-17T03:47:38.184Z,8.13
2018-08-17T03:50:08.477Z,9.23
2018-08-17T03:52:37.922Z,7.10
2018-08-17T03:55:07.366Z,9.33
2018-08-17T03:57:36.801Z,8.27
2018-08-17T04:00:06.647Z,11.60
2018-08-17T04:02:36.202Z,9.27
2018-08-17T04:05:06.178Z,10.67
2018-08-17T04:07:35.563Z,9.00
2018-08-17T04:10:05.306Z,9.90
2018-08-17T04:12:34.714Z,10.20
2018-08-17T04:15:04.250Z,11.17
2018-08-17T04:17:33.663Z,12.57
2018-08-17T04:20:03.049Z,15.75
2018-08-17T04:22:32.459Z,13.80
2018-08-17T04:25:01.872Z,16.77
2018-08-17T04:27:31.321Z,15.77
2018-08-17T04:30:00.756Z,12.73
2018-08-17T04:32:30.129Z,11.20
2018-08-17T04:34:59.586Z,13.40
2018-08-17T04:37:28.954Z,14.73
2018-08-17T04:39:58.309Z,10.37
2018-08-17T04:42:27.713Z,13.20
2018-08-17T04:44:57.123Z,12.17
2018-08-17T04:47:26.502Z,12.70
2018-08-17T04:49:55.926Z,13.10
2018-08-17T04:52:25.434Z,12.35
2018-08-17T04:54:54.816Z,11.80
2018-08-17T04:57:24.190Z,13.40
2018-08-17T04:59:53.596Z,10.53
2018-08-17T05:02:22.977Z,10.87
2018-08-17T05:04:52.414Z,13.37
2018-08-17T05:07:21.893Z,10.60
2018-08-17T05:09:51.378Z,10.70
2018-08-17T05:12:20.826Z,11.50
2018-08-17T05:14:50.222Z,13.23
2018-08-17T05:17:19.694Z,13.73
2018-08-17T05:19:49.104Z,16.50
2018-08-17T05:22:18.593Z,13.63
2018-08-17T05:24:47.989Z,14.00
2018-08-17T05:27:17.398Z,14.37
2018-08-17T05:29:46.894Z,14.20
2018-08-17T05:32:16.295Z,15.97
2018-08-17T05:34:45.853Z,15.77
2018-08-17T05:37:15.230Z,15.37
2018-08-17T05:39:44.689Z,13.83
2018-08-17T05:42:14.090Z,15.60
2018-08-17T05:44:43.594Z,15.23
2018-08-17T05:47:12.985Z,14.77
2018-08-17T05:49:42.442Z,14.50
2018-08-17T05:52:11.825Z,13.10
2018-08-17T05:54:41.238Z,14.60
2018-08-17T05:57:10.650Z,16.57
2018-08-17T05:59:40.083Z,13.40
2018-08-17T06:02:09.555Z,13.00
2018-08-17T06:04:38.946Z,11.93
2018-08-17T06:07:08.446Z,12.10
2018-08-17T06:09:37.907Z,13.30
2018-08-17T06:12:07.342Z,13.67
2018-08-17T06:14:36.758Z,10.93
2018-08-17T06:17:06.206Z,13.87
2018-08-17T06:19:35.666Z,11.40
2018-08-17T06:22:05.106Z,12.33
2018-08-17T06:24:34.630Z,11.47
2018-08-17T06:27:04.154Z,13.50
2018-08-17T06:29:33.566Z,13.40
2018-08-17T06:32:03.074Z,14.90
2018-08-17T06:34:32.497Z,16.10
2018-08-17T06:37:01.920Z,12.50
2018-08-17T06:39:31.271Z,13.33
2018-08-17T06:42:00.729Z,14.57
2018-08-17T06:44:30.125Z,12.43
2018-08-17T06:46:59.567Z,15.57
2018-08-17T06:49:29.002Z,12.60
2018-08-17T06:51:58.449Z,13.10
2018-08-17T06:54:27.838Z,11.60
2018-08-17T06:56:57.234Z,12.77
2018-08-17T06:59:26.610Z,12.03
2018-08-17T07:01:56.006Z,12.27
2018-08-17T07:04:25.403Z,12.73
2018-08-17T07:06:54.797Z,12.53
2018-08-17T07:09:24.378Z,11.27
2018-08-17T07:11:53.673Z,11.90
2018-08-17T07:14:23.045Z,11.70
2018-08-17T07:18:02.121Z,11.37
2018-08-17T07:20:31.524Z,11.13
2018-08-17T07:23:00.986Z,13.73
2018-08-17T07:25:30.430Z,10.17
2018-08-17T07:28:00.687Z,11.93
2018-08-17T07:30:30.277Z,14.20
2018-08-17T07:32:59.658Z,11.40
2018-08-17T07:35:29.048Z,10.83
2018-08-17T07:37:58.443Z,12.03
2018-08-17T07:40:27.879Z,12.20
2018-08-17T07:42:57.265Z,11.30
2018-08-17T07:45:26.718Z,10.30
2018-08-17T07:47:56.184Z,10.57
2018-08-17T07:50:25.661Z,10.53
2018-08-17T07:52:55.035Z,11.17
2018-08-17T07:55:24.498Z,11.10
2018-08-17T07:57:53.870Z,11.90
2018-08-17T08:00:23.274Z,11.20
2018-08-17T08:02:52.694Z,10.97
2018-08-17T08:05:22.107Z,10.13
2018-08-17T08:07:51.500Z,11.30
2018-08-17T08:10:20.903Z,11.37
2018-08-17T08:12:50.294Z,10.90
2018-08-17T08:15:19.689Z,10.90
2018-08-17T08:17:49.138Z,11.67
2018-08-17T08:20:35.234Z,11.13
2018-08-17T08:23:26.279Z,9.80
2018-08-17T08:25:56.224Z,10.53
2018-08-17T08:28:25.714Z,9.73
2018-08-17T08:30:55.141Z,11.33
2018-08-17T08:33:24.574Z,11.97
2018-08-17T08:35:53.959Z,11.00
2018-08-17T08:38:23.397Z,8.57
2018-08-17T08:40:52.770Z,10.83
2018-08-17T08:43:22.183Z,10.57
2018-08-17T08:45:51.642Z,8.40
2018-08-17T08:48:20.975Z,9.60
2018-08-17T08:50:50.374Z,9.10
2018-08-17T08:53:19.754Z,11.33
2018-08-17T08:55:49.282Z,10.67
2018-08-17T08:58:18.618Z,7.40
2018-08-17T09:00:48.005Z,10.87
2018-08-17T09:03:17.438Z,7.90
2018-08-17T09:05:46.930Z,13.30
2018-08-17T09:08:16.354Z,9.83
2018-08-17T09:10:45.734Z,9.30
2018-08-17T09:13:15.192Z,7.80
2018-08-17T09:15:44.629Z,8.47
2018-08-17T09:18:14.060Z,7.60
2018-08-17T09:20:43.546Z,7.23
2018-08-17T09:23:12.841Z,6.90
2018-08-17T09:25:42.254Z,11.10
2018-08-17T09:28:11.659Z,8.80
2018-08-17T09:30:41.038Z,7.90
2018-08-17T09:33:10.449Z,9.20
2018-08-17T09:35:39.859Z,7.77
2018-08-17T09:38:09.219Z,6.30
2018-08-17T09:40:38.618Z,7.00
2018-08-17T09:43:08.004Z,6.40
2018-08-17T09:45:37.414Z,7.17
2018-08-17T09:48:07.089Z,7.90
2018-08-17T09:50:37.305Z,5.73
2018-08-17T09:53:07.193Z,7.33
2018-08-17T09:55:36.550Z,7.40
2018-08-17T09:58:05.986Z,8.97
2018-08-17T10:00:40.366Z,8.73
2018-08-17T10:04:13.955Z,6.90
2018-08-17T10:06:48.470Z,6.50
2018-08-17T10:09:22.951Z,5.83
2018-08-17T10:11:52.914Z,7.57
2018-08-17T10:14:22.387Z,6.50
2018-08-17T10:16:51.774Z,5.50
2018-08-17T10:19:21.190Z,6.27
2018-08-17T10:21:55.677Z,5.53
2018-08-17T10:24:25.166Z,6.50
2018-08-17T10:26:55.361Z,7.50
2018-08-17T10:29:24.734Z,5.93
2018-08-17T10:31:54.115Z,6.03
2018-08-17T10:34:23.590Z,5.50
2018-08-17T10:36:52.966Z,5.83
2018-08-17T10:39:22.384Z,5.63
2018-08-17T10:41:51.789Z,4.70
2018-08-17T10:44:21.201Z,8.20
2018-08-17T10:46:50.579Z,7.00
2018-08-17T10:49:20.011Z,6.20
2018-08-17T10:51:49.433Z,5.40
2018-08-17T10:54:18.811Z,6.57
2018-08-17T10:56:48.199Z,5.97
2018-08-17T10:59:17.567Z,8.63
2018-08-17T11:01:46.985Z,6.03
2018-08-17T11:04:16.365Z,7.00
2018-08-17T11:06:45.762Z,6.60
2018-08-17T11:09:15.151Z,6.30
2018-08-17T11:11:44.538Z,8.50
2018-08-17T11:14:13.922Z,7.73
2018-08-17T11:16:43.346Z,6.40
2018-08-17T11:19:12.854Z,9.33
2018-08-17T11:21:42.222Z,6.97
2018-08-17T11:24:11.614Z,8.50
2018-08-17T11:26:41.010Z,6.90
2018-08-17T11:29:10.398Z,9.63
2018-08-17T11:31:39.807Z,8.80
2018-08-17T11:34:09.178Z,7.37
2018-08-17T11:36:38.562Z,6.93
2018-08-17T11:39:08.562Z,6.00
2018-08-17T11:41:37.946Z,7.07
2018-08-17T11:44:12.227Z,6.90
2018-08-17T11:46:41.583Z,6.00
2018-08-17T11:49:10.946Z,6.27
2018-08-17T11:51:41.629Z,5.87
2018-08-17T11:54:12.338Z,7.27
2018-08-17T11:56:42.425Z,6.87
2018-08-17T11:59:11.810Z,7.20
2018-08-17T12:01:41.174Z,6.27
2018-08-17T12:04:10.553Z,6.07
2018-08-17T12:06:39.926Z,6.80
2018-08-17T12:09:09.494Z,7.77
2018-08-17T12:11:38.874Z,7.50
2018-08-17T12:14:08.274Z,6.30
2018-08-17T12:16:37.643Z,5.50
2018-08-17T12:19:07.045Z,6.90
2018-08-17T12:21:36.478Z,7.00
2018-08-17T12:24:05.849Z,7.43
2018-08-17T12:26:39.346Z,7.10
2018-08-17T12:29:08.730Z,9.13
2018-08-17T12:31:38.099Z,6.50
2018-08-17T12:34:07.553Z,5.07
2018-08-17T12:36:36.938Z,7.53
2018-08-17T12:39:09.996Z,6.13
2018-08-17T12:41:39.366Z,5.97
2018-08-17T12:44:08.745Z,5.60
2018-08-17T12:46:38.195Z,5.50
2018-08-17T12:49:07.521Z,5.40
2018-08-17T12:51:36.962Z,5.90
2018-08-17T12:54:06.362Z,6.00
2018-08-17T12:56:35.734Z,5.70
2018-08-17T12:59:05.101Z,7.17
2018-08-17T13:01:34.469Z,5.67
2018-08-17T13:04:03.850Z,7.03
2018-08-17T13:06:33.262Z,5.67
2018-08-17T13:09:02.914Z,6.07
2018-08-17T13:11:32.292Z,7.30
2018-08-17T13:14:06.788Z,7.83
2018-08-17T13:16:36.201Z,5.47
2018-08-17T13:19:05.639Z,6.83
2018-08-17T13:21:35.009Z,5.20
2018-08-17T13:24:04.478Z,11.20
2018-08-17T13:26:34.119Z,10.20
2018-08-17T13:29:03.542Z,7.57
2018-08-17T13:31:33.078Z,5.30
2018-08-17T13:34:02.477Z,9.73
2018-08-17T13:36:31.866Z,7.30
2018-08-17T13:39:01.339Z,5.30
2018-08-17T13:41:30.796Z,6.23
2018-08-17T13:44:00.228Z,5.13
2018-08-17T13:46:29.638Z,5.30
2018-08-17T13:48:59.055Z,5.90
2018-08-17T13:51:28.441Z,5.30
2018-08-17T13:53:57.826Z,7.67
2018-08-17T13:56:27.202Z,5.20
2018-08-17T13:58:56.573Z,6.40
2018-08-17T14:01:26.013Z,6.33
2018-08-17T14:03:55.378Z,6.77
2018-08-17T14:06:24.785Z,7.37
2018-08-17T14:08:54.174Z,5.43
2018-08-17T14:11:23.569Z,6.47
2018-08-17T14:13:52.968Z,7.60
2018-08-17T14:16:22.415Z,5.80
2018-08-17T14:18:51.869Z,6.97
2018-08-17T14:21:21.363Z,5.90
2018-08-17T14:23:50.870Z,11.97
2018-08-17T14:26:20.258Z,10.20
2018-08-17T14:28:49.709Z,6.50
2018-08-17T14:31:19.025Z,7.70
2018-08-17T14:33:48.433Z,7.50
2018-08-17T14:36:17.961Z,7.43
2018-08-17T14:38:47.511Z,7.30
2018-08-17T14:41:16.946Z,6.00
2018-08-17T14:43:46.371Z,7.30
2018-08-17T14:46:15.864Z,4.80
2018-08-17T14:48:45.175Z,5.80
2018-08-17T14:51:14.704Z,8.97
2018-08-17T14:53:44.222Z,5.57
2018-08-17T14:56:13.588Z,6.37
2018-08-17T14:58:43.558Z,5.90
2018-08-17T15:01:13.046Z,5.10
2018-08-17T15:03:42.453Z,7.77
2018-08-17T15:06:11.851Z,4.50
2018-08-17T15:08:41.241Z,6.40
2018-08-17T15:11:10.694Z,4.60
2018-08-17T15:13:40.204Z,4.37
2018-08-17T15:16:09.551Z,7.93
2018-08-17T15:18:39.016Z,6.30
2018-08-17T15:21:08.538Z,11.30
2018-08-17T15:23:37.966Z,7.53
2018-08-17T15:26:07.934Z,6.87
2018-08-17T15:28:37.417Z,8.03
2018-08-17T15:31:06.912Z,5.47
2018-08-17T15:33:36.311Z,6.87
2018-08-17T15:36:06.270Z,5.93
2018-08-17T15:38:35.823Z,6.40
2018-08-17T15:41:05.311Z,3.50
2018-08-17T15:43:34.758Z,5.80
2018-08-17T15:46:04.217Z,6.27
2018-08-17T15:48:42.181Z,5.20
2018-08-17T15:51:12.479Z,5.30
2018-08-17T15:53:42.662Z,6.63
2018-08-17T15:56:12.605Z,7.00
2018-08-17T15:58:42.244Z,5.40
2018-08-17T16:01:12.070Z,5.07
2018-08-17T16:03:41.702Z,5.40
2018-08-17T16:06:11.636Z,5.90
2018-08-17T16:08:41.044Z,5.90
2018-08-17T16:11:10.800Z,4.40
2018-08-17T16:13:40.258Z,3.50
2018-08-17T16:16:09.715Z,4.30
2018-08-17T16:18:39.174Z,4.33
2018-08-17T16:21:08.574Z,4.63
2018-08-17T16:23:38.025Z,5.37
2018-08-17T16:26:07.466Z,4.73
2018-08-17T16:28:36.874Z,4.80
2018-08-17T16:31:06.251Z,5.57
2018-08-17T16:33:35.645Z,7.27
2018-08-17T16:36:05.061Z,5.70
2018-08-17T16:38:38.370Z,7.30
2018-08-17T16:41:08.085Z,6.50
2018-08-17T16:43:44.893Z,4.60
2018-08-17T16:46:15.182Z,4.40
2018-08-17T16:48:44.716Z,5.67
2018-08-17T16:51:14.106Z,5.70
2018-08-17T16:53:43.529Z,5.80
2018-08-17T16:56:13.058Z,5.97
2018-08-17T16:58:42.442Z,6.90
2018-08-17T17:01:11.799Z,6.40
2018-08-17T17:03:41.169Z,6.90
2018-08-17T17:06:10.566Z,6.87
2018-08-17T17:08:39.997Z,7.03
2018-08-17T17:11:09.370Z,6.23
2018-08-17T17:13:42.125Z,8.47
2018-08-17T17:16:11.501Z,6.63
2018-08-17T17:18:40.877Z,9.07
2018-08-17T17:21:10.303Z,8.27
2018-08-17T17:23:46.882Z,6.20
2018-08-17T17:26:16.273Z,7.20
2018-08-17T17:28:45.653Z,6.30
2018-08-17T17:31:17.877Z,8.17
2018-08-17T17:33:47.346Z,9.30
2018-08-17T17:36:16.746Z,6.43
2018-08-17T17:38:46.203Z,6.53
2018-08-17T17:41:15.603Z,6.40
2018-08-17T17:43:45.222Z,9.20
2018-08-17T17:46:14.629Z,8.40
2018-08-17T17:48:43.997Z,7.67
2018-08-17T17:51:13.399Z,7.43
2018-08-17T17:53:42.934Z,8.07
2018-08-17T17:56:12.406Z,7.07
2018-08-17T17:58:41.791Z,10.20
2018-08-17T18:01:11.503Z,8.67
2018-08-17T18:03:46.177Z,9.27
2018-08-17T18:06:15.706Z,8.90
2018-08-17T18:08:45.326Z,9.17
2018-08-17T18:11:14.718Z,10.37
2018-08-17T18:13:44.199Z,11.10
2018-08-17T18:16:13.628Z,9.87
2018-08-17T18:18:43.039Z,10.33
2018-08-17T18:21:12.602Z,11.40
2018-08-17T18:23:42.118Z,12.60
2018-08-17T18:26:21.835Z,12.37
2018-08-17T18:28:51.276Z,12.33
2018-08-17T18:31:20.751Z,11.77
2018-08-17T18:33:50.162Z,15.23
2018-08-17T18:36:19.750Z,14.40
2018-08-17T18:38:49.135Z,11.50
2018-08-17T18:41:18.615Z,11.70
2018-08-17T18:43:48.020Z,12.20
2018-08-17T18:46:17.502Z,10.93
2018-08-17T18:48:47.073Z,13.00
2018-08-17T18:51:16.567Z,12.30
2018-08-17T18:53:45.964Z,13.80
2018-08-17T18:56:15.393Z,12.70
2018-08-17T18:58:44.826Z,11.37
2018-08-17T19:01:14.242Z,13.07
2018-08-17T19:03:43.674Z,12.67
2018-08-17T19:06:13.066Z,11.20
2018-08-17T19:08:42.933Z,10.40
2018-08-17T19:11:12.351Z,11.50
2018-08-17T19:13:41.839Z,13.93
2018-08-17T19:16:11.388Z,10.87
2018-08-17T19:18:40.828Z,13.57
2018-08-17T19:21:11.138Z,11.97
2018-08-17T19:23:40.835Z,11.80
2018-08-17T19:26:11.450Z,11.70
2018-08-17T19:28:40.882Z,11.80
2018-08-17T19:31:10.610Z,10.20
2018-08-17T19:33:40.180Z,11.60
2018-08-17T19:36:09.818Z,10.33
2018-08-17T19:38:41.856Z,12.00
2018-08-17T19:41:11.494Z,10.20
2018-08-17T19:43:41.130Z,11.60
2018-08-17T19:46:11.244Z,11.73
2018-08-17T19:48:40.621Z,11.80
2018-08-17T19:51:15.632Z,12.03
2018-08-17T19:53:45.338Z,13.37
2018-08-17T19:56:15.626Z,11.13
2018-08-17T19:58:45.367Z,12.27
2018-08-17T20:01:16.216Z,11.33
2018-08-17T20:03:46.660Z,12.90
2018-08-17T20:06:16.290Z,10.70
2018-08-17T20:08:46.517Z,11.37
2018-08-17T20:11:16.063Z,10.00
2018-08-17T20:13:45.597Z,11.43
2018-08-17T20:16:24.803Z,9.93
2018-08-17T20:18:54.357Z,9.50
2018-08-17T20:21:25.011Z,9.50
2018-08-17T20:23:54.777Z,11.80
2018-08-17T20:26:25.521Z,8.73
2018-08-17T20:28:54.941Z,8.53
2018-08-17T20:31:24.370Z,9.73
2018-08-17T20:33:54.197Z,9.17
2018-08-17T20:36:24.142Z,10.20
2018-08-17T20:38:53.546Z,9.50
2018-08-17T20:41:22.941Z,11.20
2018-08-17T20:43:52.431Z,11.60
2018-08-17T20:46:21.839Z,8.60
2018-08-17T20:48:51.881Z,9.17
2018-08-17T20:51:26.810Z,7.87
2018-08-17T20:54:00.334Z,9.03
2018-08-17T20:56:29.808Z,7.63
2018-08-17T20:58:59.181Z,7.17
2018-08-17T21:01:28.630Z,7.50
2018-08-17T21:03:58.045Z,9.40
2018-08-17T21:06:27.466Z,7.73
2018-08-17T21:08:56.866Z,8.43
2018-08-17T21:11:26.295Z,7.10
2018-08-17T21:13:55.790Z,7.43
2018-08-17T21:16:25.239Z,6.70
2018-08-17T21:18:54.662Z,7.50
2018-08-17T21:21:24.044Z,7.10
2018-08-17T21:23:53.464Z,7.47
2018-08-17T21:26:22.848Z,5.90
2018-08-17T21:28:52.294Z,6.00
2018-08-17T21:31:21.678Z,6.30
2018-08-17T21:33:51.058Z,9.67
2018-08-17T21:36:20.449Z,6.00
2018-08-17T21:39:17.307Z,6.30
2018-08-17T21:41:48.023Z,6.80
2018-08-17T21:44:18.640Z,6.17
2018-08-17T21:47:05.185Z,5.90
2018-08-17T21:49:35.946Z,6.00
2018-08-17T21:52:07.162Z,4.97
2018-08-17T21:54:36.567Z,5.20
2018-08-17T21:57:06.071Z,5.77
2018-08-17T21:59:40.534Z,5.33
2018-08-17T22:02:11.677Z,4.43
2018-08-17T22:04:41.054Z,4.67
2018-08-17T22:07:19.873Z,4.70
2018-08-17T22:09:49.769Z,5.30
2018-08-17T22:12:19.233Z,5.10
2018-08-17T22:14:49.743Z,4.87
2018-08-17T22:17:34.283Z,5.43
2018-08-17T22:20:04.008Z,5.87
2018-08-17T22:22:33.446Z,5.40
2018-08-17T22:25:05.365Z,5.37
2018-08-17T22:27:34.813Z,5.30
2018-08-17T22:30:05.091Z,6.20
2018-08-17T22:32:34.429Z,5.73
2018-08-17T22:35:03.938Z,6.20
2018-08-17T22:37:33.349Z,4.63
2018-08-17T22:40:02.835Z,4.33
2018-08-17T22:42:32.278Z,4.93
2018-08-17T22:45:02.490Z,4.13
2018-08-17T22:47:31.967Z,4.37
2018-08-17T22:50:01.834Z,4.33
2018-08-17T22:52:34.230Z,3.93
2018-08-17T22:55:06.873Z,4.60
2018-08-17T22:57:36.239Z,4.00
2018-08-17T23:00:27.302Z,4.50
2018-08-17T23:02:58.026Z,5.50
2018-08-17T23:05:31.685Z,4.00
2018-08-17T23:08:01.090Z,3.87
2018-08-17T23:10:30.519Z,3.70
2018-08-17T23:13:00.025Z,4.00
2018-08-17T23:15:29.425Z,3.33
2018-08-17T23:17:59.994Z,3.70
2018-08-17T23:20:34.702Z,3.87
2018-08-17T23:23:05.305Z,3.63
2018-08-17T23:25:34.823Z,4.60
2018-08-17T23:28:04.210Z,3.63
2018-08-17T23:30:33.645Z,3.97
2018-08-17T23:33:03.038Z,3.50
2018-08-17T23:35:32.458Z,4.70
2018-08-17T23:38:01.936Z,4.13
2018-08-17T23:40:31.308Z,3.50
2018-08-17T23:43:00.678Z,4.13
2018-08-17T23:45:30.065Z,5.13
2018-08-17T23:47:59.442Z,5.60
2018-08-17T23:50:28.877Z,5.20
2018-08-17T23:52:58.245Z,6.23
2018-08-17T23:55:27.661Z,7.73
2018-08-17T23:57:57.026Z,7.33
